Ceres, Argentina
Current Conditions -  °F | °C
As of 11:00 PM on Friday 19 Dec 2014 (Local Time) from SACO Reporting Station
Clear Clear  
Wind Chill: 73°   Ceiling: Unl
Heat Index: 73°   Visibility: 6mi
Dew Point: 63°   Wind: 7mph
Humidity: 69%   Direction: 360°N
Pressure: 29.62"   Gusts: NA
Location:  29.88°S, 61.94°W
Report Text: SACO 200200Z 36006KT CAVOK 23/17 Q1003
Loading
Personal Weather Stations






























Interactive Weather Map New forecast layout! Learn more

10-Day Weather Forecast

Advertisements
Track Severe Weather on mobile